Freeman, SD

1:24 AM CDT on September 23, 2014 (GMT -0500)
KSDFREEM4 | Change Station
CLOSE
Current Station
Personal Weather Station
Location: FREEMAN, SD
Elevation: 1440 ft
Nearby Weather Stations

Elev 1440 ft 43.43 °N, 97.48 °W | Updated 4 minutes ago

Partly Cloudy
Partly Cloudy
62.8 °F
Feels Like 62.8 °F
N
5.0
Wind Variable Wind from South
Gusts 5.0 mph

Today
High -- | Low -- °F
--% Chance of Precip.
Yesterday
High -- | Low -- °F
Precip. -- in
7:18 AM 7:25 PM
Waning Crescent, 1% visible
Pressure 30.12 in
Visibility 10.0 miles
Clouds Clear
Dew Point 52 °F
Humidity 67%
Rainfall 0.00 in
Snow Depth Not available.
UV 0 out of 12
Pollen 4.60 out of 12
Air Quality Not available.
Flu Activity Not available.
METAR KYKN 230615Z AUTO 12005KT 10SM CLR 16/10 A3012 RMK AO1

More Conditions Fewer Conditions

Pressure 30.12 in
Visibility 10.0 miles
Clouds Clear
Dew Point 52 °F
Humidity 67%
Rainfall 0.00 in
Snow Depth Not available.
UV 0 out of 12
Pollen 4.60 out of 12
Air Quality Not available.
Flu Activity Not available.
METAR KYKN 230615Z AUTO 12005KT 10SM CLR 16/10 A3012 RMK AO1

More Conditions Fewer Conditions

10-Day Weather Forecast

Almanac

Astronomy

Sep. 23, 2014 Rise Set
Actual Time 7:18 AM CDT 7:25 PM CDT
Civil Twilight 6:49 AM CDT 7:53 PM CDT
Nautical Twilight 6:16 AM CDT 8:26 PM CDT
Astronomical Twilight 5:42 AM CDT 9:00 PM CDT
Moon 6:43 AM CDT 7:04 PM CDT
Length of Visible Light 13h 03m
Length of Day
12h 07m
Tomorrow will be 2m 56s shorter.
Waning Crescent, 1% of the Moon is Illuminated
Today
Waning Crescent
Sep 24
New
Oct 1
First Quarter
Oct 8
Full
Oct 15
Last Quarter

Today's Extremes

State Highs State Lows

Community

WunderPhotos

Upload Photos

1,755,608 photos uploaded!

Nearby

Snow Depth

Station Depth Elevation
Blind Park 0 in 6890 ft

Earthquake Activity

City Distance Mag. Time & Date
No recent earthquake activity has been reported nearby.
Minimum magnitude displayed is 2.5.

Coastal Water Temperatures

Place Temperature
No Stations Reporting

Nearby Weather Stations